createdAt,value
2022-08-05T00:00:55.283Z,97605.75
2022-08-05T00:03:27.393Z,97618.81
2022-08-05T00:06:04.935Z,97622.66
2022-08-05T00:08:44.526Z,97628.41
2022-08-05T00:11:24.011Z,97633.03
2022-08-05T00:13:57.078Z,97643.41
2022-08-05T00:16:36.108Z,97647.25
2022-08-05T00:19:03.095Z,97660.31
2022-08-05T00:21:30.667Z,97657.13
2022-08-05T00:24:10.508Z,97655.53
2022-08-05T00:26:37.583Z,97653.28
2022-08-05T00:29:03.922Z,97666.34
2022-08-05T00:31:52.909Z,97673.47
2022-08-05T00:34:53.546Z,97665.91
2022-08-05T00:37:10.725Z,97655.84
2022-08-05T00:39:41.518Z,97658.53
2022-08-05T00:42:31.968Z,97659.31
2022-08-05T00:44:59.317Z,97667.84
2022-08-05T00:47:25.828Z,97664.31
2022-08-05T00:49:52.135Z,97670.44
2022-08-05T00:52:18.552Z,97668.50
2022-08-05T00:54:54.979Z,97672.75
2022-08-05T00:57:22.879Z,97675.91
2022-08-05T00:59:51.855Z,97669.00
2022-08-05T01:02:18.249Z,97682.19
2022-08-05T01:04:44.543Z,97671.78
2022-08-05T01:07:17.884Z,97683.06
2022-08-05T01:09:44.466Z,97680.16
2022-08-05T01:12:18.797Z,97669.94
2022-08-05T01:14:45.585Z,97665.41
2022-08-05T01:17:12.308Z,97672.84
2022-08-05T01:20:02.424Z,97688.13
2022-08-05T01:22:27.797Z,97689.00
2022-08-05T01:24:54.632Z,97712.66
2022-08-05T01:27:22.125Z,97717.09
2022-08-05T01:29:48.587Z,97718.00
2022-08-05T01:32:18.670Z,97708.09
2022-08-05T01:34:45.159Z,97694.69
2022-08-05T01:37:18.030Z,97677.16
2022-08-05T01:39:51.314Z,97687.47
2022-08-05T01:42:17.749Z,97698.09
2022-08-05T01:44:44.083Z,97710.84
2022-08-05T01:47:20.204Z,97719.53
2022-08-05T01:50:01.652Z,97708.53
2022-08-05T01:52:29.692Z,97701.84
2022-08-05T01:54:56.664Z,97712.16
2022-08-05T01:58:11.253Z,97722.41
2022-08-05T02:00:11.919Z,97728.75
2022-08-05T02:02:38.618Z,97720.13
2022-08-05T02:05:13.655Z,97703.72
2022-08-05T02:07:41.787Z,97709.44
2022-08-05T02:10:28.105Z,97725.44
2022-08-05T02:12:54.937Z,97739.53
2022-08-05T02:15:21.313Z,97740.66
2022-08-05T02:18:31.342Z,97745.53
2022-08-05T02:20:33.919Z,97770.16
2022-08-05T02:23:05.567Z,97769.66
2022-08-05T02:25:49.453Z,97799.69
2022-08-05T02:28:28.352Z,97822.41
2022-08-05T02:30:56.817Z,97837.31
2022-08-05T02:33:24.543Z,97833.28
2022-08-05T02:36:02.882Z,97849.31
2022-08-05T02:38:35.243Z,97860.47
2022-08-05T02:41:06.417Z,97852.69
2022-08-05T02:44:06.029Z,97845.38
2022-08-05T02:46:30.381Z,97839.38
2022-08-05T02:48:56.825Z,97821.78
2022-08-05T02:51:42.381Z,97819.28
2022-08-05T02:54:09.489Z,97799.78
2022-08-05T02:56:56.289Z,97808.41
2022-08-05T02:59:26.935Z,97785.66
2022-08-05T03:01:54.278Z,97762.97
2022-08-05T03:04:23.034Z,97738.34
2022-08-05T03:06:55.672Z,97709.41
2022-08-05T03:09:36.126Z,97676.97
2022-08-05T03:12:04.249Z,97649.19
2022-08-05T03:14:30.672Z,97624.06
2022-08-05T03:16:57.132Z,97624.88
2022-08-05T03:19:34.108Z,97620.53
2022-08-05T03:22:02.460Z,97590.03
2022-08-05T03:24:31.084Z,97586.53
2022-08-05T03:26:57.470Z,97582.22
2022-08-05T03:29:23.757Z,97559.81
2022-08-05T03:31:57.307Z,97540.91
2022-08-05T03:34:27.364Z,97540.41
2022-08-05T03:36:55.186Z,97528.00
2022-08-05T03:39:26.739Z,97532.94
2022-08-05T03:41:53.722Z,97514.31
2022-08-05T03:44:22.698Z,97517.31
2022-08-05T03:46:49.199Z,97505.22
2022-08-05T03:49:15.743Z,97530.34
2022-08-05T03:52:38.780Z,97552.22
2022-08-05T03:56:01.037Z,97570.34
2022-08-05T03:57:16.068Z,97586.06
2022-08-05T03:59:46.856Z,97597.94
2022-08-05T04:02:38.414Z,97610.69
2022-08-05T04:05:05.800Z,97603.34
2022-08-05T04:07:36.099Z,97590.16
2022-08-05T04:10:23.207Z,97576.94
2022-08-05T04:12:49.540Z,97564.25
2022-08-05T04:15:16.848Z,97556.47
2022-08-05T04:17:56.199Z,97565.34
2022-08-05T04:20:24.261Z,97571.84
2022-08-05T04:22:50.856Z,97575.38
2022-08-05T04:25:17.243Z,97582.66
2022-08-05T04:27:57.357Z,97577.25
2022-08-05T04:30:26.580Z,97573.75
2022-08-05T04:32:53.031Z,97561.06
2022-08-05T04:35:19.906Z,97570.28
2022-08-05T04:38:02.528Z,97576.44
2022-08-05T04:40:32.905Z,97582.97
2022-08-05T04:43:00.113Z,97592.16
2022-08-05T04:45:47.872Z,97610.28
2022-08-05T04:48:18.743Z,97632.66
2022-08-05T04:51:01.932Z,97655.06
2022-08-05T04:53:36.524Z,97660.78
2022-08-05T04:56:33.192Z,97714.00
2022-08-05T04:58:51.892Z,97758.31
2022-08-05T05:02:05.827Z,97767.22
2022-08-05T05:04:05.786Z,97763.72
2022-08-05T05:06:40.614Z,97764.03
2022-08-05T05:09:13.245Z,97748.59
2022-08-05T05:11:52.909Z,97734.31
2022-08-05T05:14:31.605Z,97720.81
2022-08-05T05:16:58.738Z,97707.31
2022-08-05T05:19:27.301Z,97702.97
2022-08-05T05:21:55.538Z,97706.50
2022-08-05T05:24:22.042Z,97725.41
2022-08-05T05:26:48.359Z,97735.91
2022-08-05T05:29:18.289Z,97737.78
2022-08-05T05:31:46.263Z,97734.00
2022-08-05T05:34:13.058Z,97733.19
2022-08-05T05:36:44.047Z,97735.91
2022-08-05T05:39:13.531Z,97733.19
2022-08-05T05:41:41.897Z,97731.31
2022-08-05T05:44:26.988Z,97742.91
2022-08-05T05:46:55.266Z,97739.09
2022-08-05T05:49:24.343Z,97747.72
2022-08-05T05:51:50.921Z,97753.94
2022-08-05T05:54:20.064Z,97758.72
2022-08-05T05:56:46.467Z,97767.66
2022-08-05T05:59:13.762Z,97782.75
2022-08-05T06:01:40.280Z,97792.72
2022-08-05T06:04:06.847Z,97779.53
2022-08-05T06:06:34.753Z,97768.72
2022-08-05T06:09:01.759Z,97795.75
2022-08-05T06:11:30.350Z,97798.44
2022-08-05T06:13:56.756Z,97794.16
2022-08-05T06:16:28.692Z,97772.53
2022-08-05T06:18:59.976Z,97777.13
2022-08-05T06:21:35.773Z,97763.63
2022-08-05T06:24:04.240Z,97760.94
2022-08-05T06:26:33.801Z,97767.13
2022-08-05T06:29:03.469Z,97757.09
2022-08-05T06:31:33.662Z,97754.41
2022-08-05T06:34:06.956Z,97738.72
2022-08-05T06:36:55.331Z,97745.72
2022-08-05T06:39:21.855Z,97747.13
2022-08-05T06:41:51.284Z,97731.50
2022-08-05T06:44:18.555Z,97722.91
2022-08-05T06:46:51.273Z,97711.28
2022-08-05T06:49:18.826Z,97716.50
2022-08-05T06:51:47.771Z,97713.28
2022-08-05T06:54:18.240Z,97711.69
2022-08-05T06:56:54.976Z,97724.88
2022-08-05T06:59:38.703Z,97733.72
2022-08-05T07:02:08.596Z,97742.63
2022-08-05T07:04:34.977Z,97732.59
2022-08-05T07:07:02.771Z,97712.00
2022-08-05T07:09:40.576Z,97696.47
2022-08-05T07:12:09.719Z,97693.03
2022-08-05T07:14:36.922Z,97692.03
2022-08-05T07:18:00.754Z,97684.44
2022-08-05T07:20:32.279Z,97695.34
2022-08-05T07:22:36.481Z,97697.16
2022-08-05T07:25:23.869Z,97700.25
2022-08-05T07:27:57.949Z,97711.75
2022-08-05T07:30:33.393Z,97695.44
2022-08-05T07:33:00.737Z,97696.53
2022-08-05T07:36:01.693Z,97702.56
2022-08-05T07:38:26.470Z,97730.50
2022-08-05T07:41:16.894Z,97746.44
2022-08-05T07:43:46.321Z,97740.84
2022-08-05T07:46:18.908Z,97724.03
2022-08-05T07:49:02.408Z,97723.31
2022-08-05T07:51:37.371Z,97707.50
2022-08-05T07:54:08.389Z,97706.69
2022-08-05T07:56:39.245Z,97712.09
2022-08-05T07:59:31.121Z,97729.63
2022-08-05T08:02:06.341Z,97754.06
2022-08-05T08:04:41.670Z,97771.97
2022-08-05T08:07:08.168Z,97768.38
2022-08-05T08:09:34.492Z,97747.53
2022-08-05T08:12:09.167Z,97764.34
2022-08-05T08:14:40.907Z,97770.56
2022-08-05T08:17:07.208Z,97764.53
2022-08-05T08:20:10.232Z,97758.94
2022-08-05T08:22:21.213Z,97760.63
2022-08-05T08:24:53.364Z,97748.03
2022-08-05T08:27:19.730Z,97759.81
2022-08-05T08:30:05.466Z,97774.75
2022-08-05T08:32:32.669Z,97802.00
2022-08-05T08:35:05.324Z,97811.91
2022-08-05T08:37:40.189Z,97818.38
2022-08-05T08:40:11.631Z,97813.06
2022-08-05T08:42:50.663Z,97808.25
2022-08-05T08:45:26.992Z,97850.13
2022-08-05T08:48:10.711Z,97868.66
2022-08-05T08:51:03.438Z,97831.81
2022-08-05T08:53:30.063Z,97792.81
2022-08-05T08:56:04.015Z,97793.84
2022-08-05T08:58:36.971Z,97795.06
2022-08-05T09:01:11.099Z,97803.72
2022-08-05T09:03:45.257Z,97816.63
2022-08-05T09:06:13.864Z,97843.09
2022-08-05T09:08:45.066Z,97834.78
2022-08-05T09:11:12.212Z,97853.75
2022-08-05T09:14:01.254Z,97832.16
2022-08-05T09:16:26.921Z,97825.88
2022-08-05T09:18:53.392Z,97843.38
2022-08-05T09:22:21.772Z,97836.19
2022-08-05T09:24:08.253Z,97844.81
2022-08-05T09:26:36.717Z,97856.25
2022-08-05T09:29:03.052Z,97849.09
2022-08-05T09:32:39.863Z,97856.22
2022-08-05T09:34:15.924Z,97850.03
2022-08-05T09:36:53.979Z,97854.63
2022-08-05T09:39:22.387Z,97845.13
2022-08-05T09:41:56.147Z,97843.00
2022-08-05T09:44:22.813Z,97853.69
2022-08-05T09:46:53.479Z,97865.75
2022-08-05T09:49:20.168Z,97846.63
2022-08-05T09:51:48.834Z,97845.31
2022-08-05T09:54:16.346Z,97840.41
2022-08-05T09:56:55.469Z,97834.72
2022-08-05T09:59:24.104Z,97834.91
2022-08-05T10:01:58.192Z,97849.09
2022-08-05T10:04:28.531Z,97851.22
2022-08-05T10:06:59.341Z,97850.72
2022-08-05T10:09:29.532Z,97860.53
2022-08-05T10:11:56.557Z,97854.53
2022-08-05T10:14:25.056Z,97862.06
2022-08-05T10:16:53.523Z,97858.84
2022-08-05T10:19:23.427Z,97849.09
2022-08-05T10:21:58.502Z,97850.22
2022-08-05T10:24:25.079Z,97834.59
2022-08-05T10:26:53.648Z,97826.38
2022-08-05T10:29:24.154Z,97846.69
2022-08-05T10:32:52.055Z,97843.88
2022-08-05T10:34:52.585Z,97848.06
2022-08-05T10:37:22.264Z,97841.75
2022-08-05T10:40:03.039Z,97837.59
2022-08-05T10:42:39.432Z,97827.91
2022-08-05T10:45:24.050Z,97821.88
2022-08-05T10:48:31.588Z,97809.31
2022-08-05T10:50:42.700Z,97813.63
2022-08-05T10:53:10.339Z,97811.91
2022-08-05T10:56:03.528Z,97813.19
2022-08-05T10:58:23.074Z,97822.00
2022-08-05T11:01:02.991Z,97813.59
2022-08-05T11:03:29.515Z,97807.44
2022-08-05T11:05:56.137Z,97811.59
2022-08-05T11:08:39.160Z,97812.41
2022-08-05T11:11:14.620Z,97817.69
2022-08-05T11:13:55.134Z,97806.28
2022-08-05T11:16:33.907Z,97802.44
2022-08-05T11:20:10.224Z,97807.38
2022-08-05T11:21:57.877Z,97802.44
2022-08-05T11:24:30.191Z,97810.28
2022-08-05T11:26:57.285Z,97832.53
2022-08-05T11:29:25.238Z,97833.13
2022-08-05T11:31:57.004Z,97837.56
2022-08-05T11:34:27.222Z,97866.06
2022-08-05T11:36:54.918Z,97875.09
2022-08-05T11:39:23.339Z,97878.72
2022-08-05T11:42:01.335Z,97880.13
2022-08-05T11:44:53.123Z,97874.25
2022-08-05T11:47:21.770Z,97883.13
2022-08-05T11:49:49.843Z,97888.56
2022-08-05T11:52:17.447Z,97900.00
2022-08-05T11:54:54.809Z,97906.81
2022-08-05T11:57:26.036Z,97916.97
2022-08-05T11:59:57.105Z,97920.25
2022-08-05T12:02:31.485Z,97921.38
2022-08-05T12:05:00.074Z,97927.91
2022-08-05T12:08:04.437Z,97932.53
2022-08-05T12:10:13.241Z,97939.81
2022-08-05T12:12:40.150Z,97929.72
2022-08-05T12:15:35.902Z,97955.06
2022-08-05T12:18:11.019Z,97941.63
2022-08-05T12:20:38.456Z,97947.03
2022-08-05T12:23:05.185Z,97949.44
2022-08-05T12:25:31.509Z,97953.56
2022-08-05T12:27:58.424Z,97953.69
2022-08-05T12:30:29.116Z,97948.06
2022-08-05T12:33:07.206Z,97962.97
2022-08-05T12:35:45.423Z,97956.06
2022-08-05T12:38:15.165Z,97969.06
2022-08-05T12:40:44.162Z,97976.19
2022-08-05T12:43:10.617Z,97992.19
2022-08-05T12:45:48.196Z,97993.63
2022-08-05T12:48:26.990Z,97996.38
2022-08-05T12:50:54.458Z,98002.41
2022-08-05T12:53:20.939Z,98007.91
2022-08-05T12:56:03.545Z,98007.69
2022-08-05T12:58:49.789Z,98006.97
2022-08-05T13:02:02.596Z,98015.38
2022-08-05T13:04:03.148Z,98024.91
2022-08-05T13:06:33.987Z,98024.97
2022-08-05T13:09:00.430Z,98027.44
2022-08-05T13:12:01.139Z,98025.94
2022-08-05T13:14:14.724Z,98025.72
2022-08-05T13:16:41.268Z,98022.47
2022-08-05T13:19:08.359Z,98034.41
2022-08-05T13:21:37.887Z,98032.28
2022-08-05T13:24:14.454Z,98037.75
2022-08-05T13:26:54.313Z,98029.13
2022-08-05T13:29:37.662Z,98032.72
2022-08-05T13:32:05.492Z,98042.00
2022-08-05T13:34:32.750Z,98042.38
2022-08-05T13:36:59.119Z,98045.16
2022-08-05T13:40:15.905Z,98041.41
2022-08-05T13:42:14.521Z,98038.22
2022-08-05T13:44:45.410Z,98051.50
2022-08-05T13:47:34.928Z,98042.06
2022-08-05T13:49:58.913Z,98043.19
2022-08-05T13:52:29.052Z,98050.69
2022-08-05T13:54:56.074Z,98041.94
2022-08-05T13:57:22.684Z,98054.00
2022-08-05T13:59:55.361Z,98057.94
2022-08-05T14:02:26.489Z,98062.16
2022-08-05T14:04:56.128Z,98068.59
2022-08-05T14:08:00.206Z,98063.63
2022-08-05T14:10:14.013Z,98067.59
2022-08-05T14:12:48.475Z,98079.94
2022-08-05T14:16:09.005Z,98085.88
2022-08-05T14:18:01.769Z,98082.56
2022-08-05T14:20:30.372Z,98095.50
2022-08-05T14:22:56.693Z,98097.91
2022-08-05T14:25:28.126Z,98107.63
2022-08-05T14:27:56.377Z,98103.56
2022-08-05T14:30:26.679Z,98111.38
2022-08-05T14:32:54.303Z,98113.78
2022-08-05T14:35:23.147Z,98119.97
2022-08-05T14:37:53.554Z,98105.97
2022-08-05T14:40:21.723Z,98107.56
2022-08-05T14:42:50.868Z,98115.38
2022-08-05T14:45:18.180Z,98110.78
2022-08-05T14:48:04.115Z,98115.38
2022-08-05T14:50:31.851Z,98116.78
2022-08-05T14:52:58.604Z,98115.16
2022-08-05T14:55:38.443Z,98121.06
2022-08-05T14:58:11.017Z,98125.38
2022-08-05T15:00:37.849Z,98125.88
2022-08-05T15:03:04.920Z,98126.41
2022-08-05T15:06:08.315Z,98134.22
2022-08-05T15:08:58.075Z,98136.13
2022-08-05T15:11:08.519Z,98136.91
2022-08-05T15:13:44.909Z,98135.03
2022-08-05T15:16:13.311Z,98134.22
2022-08-05T15:18:39.883Z,98134.44
2022-08-05T15:21:08.270Z,98140.34
2022-08-05T15:23:34.771Z,98140.88
2022-08-05T15:26:04.344Z,98142.47
2022-08-05T15:28:33.777Z,98149.50
2022-08-05T15:31:00.123Z,98148.41
2022-08-05T15:34:19.494Z,98153.25
2022-08-05T15:36:17.214Z,98146.72
2022-08-05T15:38:50.798Z,98145.59
2022-08-05T15:41:55.940Z,98135.91
2022-08-05T15:44:23.457Z,98139.13
2022-08-05T15:46:50.688Z,98136.41
2022-08-05T15:49:27.328Z,98132.88
2022-08-05T15:52:13.518Z,98133.19
2022-08-05T15:54:43.398Z,98142.63
2022-08-05T15:57:09.809Z,98137.44
2022-08-05T15:59:36.148Z,98138.50
2022-08-05T16:02:04.694Z,98133.63
2022-08-05T16:04:36.337Z,98136.91
2022-08-05T16:07:02.742Z,98132.28
2022-08-05T16:09:32.266Z,98138.50
2022-08-05T16:11:59.243Z,98133.09
2022-08-05T16:14:25.670Z,98121.19
2022-08-05T16:16:52.021Z,98131.44
2022-08-05T16:20:03.489Z,98136.03
2022-08-05T16:22:05.233Z,98150.38
2022-08-05T16:24:39.897Z,98139.53
2022-08-05T16:27:08.786Z,98139.25
2022-08-05T16:29:37.260Z,98141.94
2022-08-05T16:32:04.631Z,98148.16
2022-08-05T16:34:31.040Z,98144.34
2022-08-05T16:36:57.366Z,98154.06
2022-08-05T16:40:04.775Z,98160.59
2022-08-05T16:42:14.114Z,98170.03
2022-08-05T16:44:44.445Z,98165.41
2022-08-05T16:47:28.584Z,98175.44
2022-08-05T16:50:02.778Z,98164.63
2022-08-05T16:52:32.599Z,98163.00
2022-08-05T16:55:00.264Z,98162.19
2022-08-05T16:57:30.161Z,98162.19
2022-08-05T17:00:14.316Z,98163.28
2022-08-05T17:02:52.677Z,98166.00
2022-08-05T17:05:18.952Z,98162.47
2022-08-05T17:07:53.017Z,98159.78
2022-08-05T17:10:21.762Z,98156.28
2022-08-05T17:12:53.142Z,98158.19
2022-08-05T17:15:19.921Z,98167.38
2022-08-05T17:17:48.892Z,98168.19
2022-08-05T17:20:21.235Z,98161.19
2022-08-05T17:22:47.535Z,98161.97
2022-08-05T17:25:33.922Z,98165.78
2022-08-05T17:28:06.614Z,98167.19
2022-08-05T17:30:39.749Z,98173.69
2022-08-05T17:33:16.574Z,98183.69
2022-08-05T17:36:08.139Z,98183.69
2022-08-05T17:38:29.875Z,98182.91
2022-08-05T17:40:58.706Z,98186.41
2022-08-05T17:43:46.891Z,98184.81
2022-08-05T17:46:12.258Z,98180.78
2022-08-05T17:48:40.246Z,98187.31
2022-08-05T17:51:10.295Z,98185.69
2022-08-05T17:53:39.245Z,98190.59
2022-08-05T17:56:06.310Z,98184.38
2022-08-05T17:58:32.924Z,98192.78
2022-08-05T18:00:59.337Z,98206.63
2022-08-05T18:03:58.837Z,98196.09
2022-08-05T18:06:15.200Z,98208.00
2022-08-05T18:08:44.222Z,98211.81
2022-08-05T18:11:23.996Z,98218.28
2022-08-05T18:13:59.582Z,98220.47
2022-08-05T18:16:26.202Z,98227.00
2022-08-05T18:18:52.593Z,98220.56
2022-08-05T18:21:20.075Z,98226.84
2022-08-05T18:23:49.123Z,98229.94
2022-08-05T18:26:20.395Z,98227.84
2022-08-05T18:28:46.743Z,98227.41
2022-08-05T18:31:15.899Z,98230.44
2022-08-05T18:33:47.141Z,98232.16
2022-08-05T18:36:16.194Z,98228.22
2022-08-05T18:38:43.225Z,98229.63
2022-08-05T18:41:53.710Z,98236.47
2022-08-05T18:43:56.835Z,98236.00
2022-08-05T18:46:32.354Z,98238.25
2022-08-05T18:48:59.225Z,98241.00
2022-08-05T18:52:05.359Z,98243.22
2022-08-05T18:54:12.477Z,98241.13
2022-08-05T18:56:39.783Z,98242.53
2022-08-05T18:59:50.667Z,98235.06
2022-08-05T19:01:57.978Z,98246.47
2022-08-05T19:04:27.872Z,98247.59
2022-08-05T19:06:54.447Z,98242.53
2022-08-05T19:09:21.322Z,98246.34
2022-08-05T19:12:00.346Z,98253.38
2022-08-05T19:14:44.672Z,98270.97
2022-08-05T19:17:14.546Z,98270.72
2022-08-05T19:19:46.340Z,98274.25
2022-08-05T19:22:13.454Z,98278.59
2022-08-05T19:24:55.821Z,98266.47
2022-08-05T19:27:22.993Z,98271.38
2022-08-05T19:29:49.511Z,98275.16
2022-08-05T19:32:15.885Z,98275.19
2022-08-05T19:34:42.488Z,98283.84
2022-08-05T19:37:22.217Z,98283.34
2022-08-05T19:39:56.536Z,98290.38
2022-08-05T19:42:35.803Z,98295.50
2022-08-05T19:45:02.596Z,98308.22
2022-08-05T19:47:32.103Z,98314.16
2022-08-05T19:50:00.402Z,98309.59
2022-08-05T19:52:31.441Z,98320.66
2022-08-05T19:55:00.464Z,98329.81
2022-08-05T19:57:47.708Z,98332.00
2022-08-05T20:00:20.751Z,98334.69
2022-08-05T20:02:47.358Z,98337.38
2022-08-05T20:05:16.411Z,98340.06
2022-08-05T20:07:53.873Z,98350.88
2022-08-05T20:10:24.446Z,98360.56
2022-08-05T20:12:51.437Z,98360.59
2022-08-05T20:15:47.727Z,98361.94
2022-08-05T20:18:10.114Z,98369.75
2022-08-05T20:20:55.277Z,98372.19
2022-08-05T20:23:23.209Z,98374.91
2022-08-05T20:25:52.229Z,98372.19
2022-08-05T20:28:18.786Z,98380.25
2022-08-05T20:30:45.207Z,98390.25
2022-08-05T20:33:14.262Z,98384.84
2022-08-05T20:35:45.548Z,98395.06
2022-08-05T20:38:14.446Z,98399.88
2022-08-05T20:40:50.533Z,98400.97
2022-08-05T20:43:17.026Z,98402.56
2022-08-05T20:46:00.204Z,98406.63
2022-08-05T20:48:26.850Z,98406.06
2022-08-05T20:50:53.212Z,98403.91
2022-08-05T20:53:36.885Z,98406.34
2022-08-05T20:56:08.825Z,98412.50
2022-08-05T20:58:35.558Z,98413.03
2022-08-05T21:01:02.389Z,98413.56
2022-08-05T21:03:29.633Z,98412.47
2022-08-05T21:06:01.303Z,98415.97
2022-08-05T21:08:35.959Z,98421.84
2022-08-05T21:11:11.564Z,98418.09
2022-08-05T21:13:47.945Z,98415.38
2022-08-05T21:16:23.129Z,98409.94
2022-08-05T21:18:56.645Z,98412.00
2022-08-05T21:21:26.619Z,98415.72
2022-08-05T21:24:06.210Z,98416.50
2022-08-05T21:26:32.655Z,98426.94
2022-08-05T21:29:03.879Z,98426.59
2022-08-05T21:31:41.590Z,98422.78
2022-08-05T21:34:08.437Z,98423.00
2022-08-05T21:36:37.047Z,98424.56
2022-08-05T21:39:03.495Z,98425.81
2022-08-05T21:41:32.890Z,98428.72
2022-08-05T21:44:03.819Z,98434.53
2022-08-05T21:46:30.885Z,98433.72
2022-08-05T21:48:57.264Z,98441.97
2022-08-05T21:52:21.903Z,98446.47
2022-08-05T21:54:12.749Z,98445.34
2022-08-05T21:56:44.490Z,98446.34
2022-08-05T21:59:24.262Z,98444.91
2022-08-05T22:01:51.525Z,98448.06
2022-08-05T22:04:21.301Z,98451.19
2022-08-05T22:06:51.884Z,98446.25
2022-08-05T22:09:21.077Z,98451.50
2022-08-05T22:11:48.637Z,98444.38
2022-08-05T22:14:34.118Z,98452.06
2022-08-05T22:17:05.030Z,98457.06
2022-08-05T22:20:02.180Z,98456.16
2022-08-05T22:22:27.237Z,98453.94
2022-08-05T22:24:55.957Z,98450.88
2022-08-05T22:27:22.461Z,98452.41
2022-08-05T22:29:49.274Z,98451.28
2022-08-05T22:32:20.751Z,98455.75
2022-08-05T22:34:49.371Z,98466.16
2022-08-05T22:37:15.740Z,98470.06
2022-08-05T22:39:42.129Z,98467.78
2022-08-05T22:42:15.329Z,98471.13
2022-08-05T22:44:42.751Z,98478.50
2022-08-05T22:47:15.090Z,98484.03
2022-08-05T22:50:19.664Z,98489.88
2022-08-05T22:52:42.849Z,98494.09
2022-08-05T22:55:19.274Z,98499.13
2022-08-05T22:57:46.350Z,98497.16
2022-08-05T23:00:12.627Z,98498.47
2022-08-05T23:02:46.883Z,98496.16
2022-08-05T23:05:13.947Z,98503.31
2022-08-05T23:07:44.097Z,98506.69
2022-08-05T23:10:15.172Z,98498.91
2022-08-05T23:12:43.776Z,98505.53
2022-08-05T23:15:10.367Z,98502.28
2022-08-05T23:18:00.509Z,98512.66
2022-08-05T23:20:25.184Z,98511.50
2022-08-05T23:22:56.044Z,98518.84
2022-08-05T23:25:53.007Z,98518.28
2022-08-05T23:28:09.348Z,98514.94
2022-08-05T23:30:40.648Z,98516.94
2022-08-05T23:33:16.001Z,98515.56
2022-08-05T23:35:43.335Z,98515.22
2022-08-05T23:38:12.170Z,98516.50
2022-08-05T23:40:42.373Z,98515.34
2022-08-05T23:49:00.769Z,98533.50
2022-08-05T23:51:28.409Z,98533.41
2022-08-05T23:54:01.114Z,98531.47
2022-08-05T23:56:27.799Z,98535.63
2022-08-05T23:58:54.184Z,98546.22
